createdAt,value
2023-09-08T04:30:04.736Z,0.00
2023-09-08T04:31:06.709Z,0.00
2023-09-08T12:21:44.215Z,286.88
2023-09-08T12:24:30.936Z,292.50
2023-09-08T12:25:31.135Z,292.50
2023-09-08T12:26:31.117Z,292.50
2023-09-08T12:27:32.524Z,292.50
2023-09-08T12:28:32.107Z,292.50
2023-09-08T12:29:33.007Z,292.50
2023-09-08T12:30:32.051Z,292.50
2023-09-08T12:31:32.020Z,292.50
2023-09-08T12:32:31.982Z,292.50
2023-09-08T12:33:32.023Z,292.50
2023-09-08T12:34:31.962Z,298.12
2023-09-08T12:35:32.806Z,298.12
2023-09-08T12:36:32.970Z,298.12
2023-09-08T12:37:31.890Z,298.12
2023-09-08T12:38:31.965Z,298.12
2023-09-08T12:39:31.949Z,298.12
2023-09-08T12:40:32.056Z,298.12
2023-09-08T12:41:31.894Z,298.12
2023-09-08T12:42:32.791Z,303.75
2023-09-08T12:43:33.644Z,303.75
2023-09-08T12:44:32.009Z,303.75
2023-09-08T12:45:32.226Z,303.75
2023-09-08T12:46:31.912Z,303.75
2023-09-08T12:47:32.108Z,303.75
2023-09-08T12:48:31.906Z,303.75
2023-09-08T12:49:31.989Z,309.38
2023-09-08T12:50:31.850Z,309.38
2023-09-08T12:51:31.745Z,309.38
2023-09-08T12:52:31.805Z,315.00
2023-09-08T12:53:31.827Z,315.00
2023-09-08T12:54:31.743Z,315.00
2023-09-08T12:55:31.758Z,315.00
2023-09-08T12:56:31.739Z,315.00
2023-09-08T12:57:31.886Z,315.00
2023-09-08T12:58:31.812Z,315.00
2023-09-08T12:59:31.855Z,320.62
2023-09-08T13:00:31.834Z,320.62
2023-09-08T13:01:31.737Z,326.25
2023-09-08T13:02:31.917Z,331.88
2023-09-08T13:03:31.793Z,337.50
2023-09-08T13:04:31.851Z,354.38
2023-09-08T13:05:31.814Z,382.50
2023-09-08T13:06:31.772Z,573.75
2023-09-08T13:07:31.906Z,1299.38
2023-09-08T13:08:32.052Z,1783.12
2023-09-08T13:09:31.753Z,1687.50
2023-09-08T13:10:31.826Z,1895.62
2023-09-08T13:11:32.015Z,2070.00
2023-09-08T13:12:31.668Z,1783.12
2023-09-08T13:13:32.889Z,1282.50
2023-09-08T13:14:31.658Z,1271.25
2023-09-08T13:15:31.640Z,1395.00
2023-09-08T13:16:31.688Z,1558.12
2023-09-08T13:17:31.567Z,1546.88
2023-09-08T13:18:31.583Z,1468.12
2023-09-08T13:19:31.608Z,1636.88
2023-09-08T13:20:31.768Z,1620.00
2023-09-08T13:21:31.608Z,1614.38
2023-09-08T13:22:31.687Z,1383.75
2023-09-08T13:23:32.213Z,1316.25
2023-09-08T13:24:31.577Z,1321.88
2023-09-08T13:25:31.432Z,1333.12
2023-09-08T13:26:31.647Z,1659.38
2023-09-08T13:27:31.606Z,1738.12
2023-09-08T13:28:31.577Z,1890.00
2023-09-08T13:29:31.606Z,1580.62
2023-09-08T13:30:31.602Z,1676.25
2023-09-08T13:31:31.632Z,2086.88
2023-09-08T13:32:31.777Z,1783.12
2023-09-08T13:33:31.712Z,1721.25
2023-09-08T13:34:31.663Z,1968.75
2023-09-08T13:35:31.851Z,1591.88
2023-09-08T13:36:32.968Z,1518.75
2023-09-08T13:37:31.481Z,2115.00
2023-09-08T13:38:31.643Z,2008.12
2023-09-08T13:39:31.638Z,1620.00
2023-09-08T13:40:31.463Z,1710.00
2023-09-08T13:41:31.500Z,1867.50
2023-09-08T13:42:31.331Z,1856.25
2023-09-08T13:43:31.334Z,1974.38
2023-09-08T13:44:31.596Z,1957.50
2023-09-08T13:45:31.709Z,2002.50
2023-09-08T13:46:31.500Z,2013.75
2023-09-08T13:47:32.197Z,1732.50
2023-09-08T13:48:31.565Z,1732.50
2023-09-08T13:49:32.851Z,2030.62
2023-09-08T13:50:33.529Z,1856.25
2023-09-08T13:51:31.874Z,1755.00
2023-09-08T13:52:32.796Z,2081.25
2023-09-08T13:53:42.769Z,1946.25
2023-09-08T13:54:34.621Z,1816.88
2023-09-08T13:55:37.606Z,1828.12
2023-09-08T13:56:33.859Z,2148.75
2023-09-08T13:57:34.971Z,2199.38
2023-09-08T14:00:44.538Z,1901.25
2023-09-08T14:01:42.030Z,1878.75
2023-09-08T14:02:43.635Z,1946.25
2023-09-08T14:04:43.495Z,2053.12
2023-09-08T14:05:45.343Z,2368.12
2023-09-08T14:06:50.226Z,2323.12
2023-09-08T14:09:09.569Z,2458.12
2023-09-08T14:09:52.957Z,2323.12
2023-09-08T14:10:52.033Z,1957.50
2023-09-08T17:07:33.709Z,140.62
2023-09-08T17:08:26.594Z,135.00
2023-09-08T17:09:26.808Z,135.00
2023-09-08T17:13:33.501Z,123.75
2023-09-08T17:14:32.883Z,118.12
2023-09-08T17:15:32.148Z,118.12
2023-09-08T20:36:07.137Z,0.00
2023-09-08T20:37:08.425Z,0.00
